Time;durP1;ratioP1;P1;durP2;ratioP2;P2;SDS_P1;SDS_P2;PMS_P1;PMS_P2;Temp;Humidity;BMP_temperature;BMP_pressure;BME280_temperature;BME280_humidity;BME280_pressure;Samples;Min_cycle;Max_cycle;Signal;HPM_P1;HPM_P2
2022/10/18 00:02:05;;;;;;;4.50;4.10;;;;;;;13.79;100.00;96865.47;6176970;23;20009;-70
2022/10/18 00:04:31;;;;;;;9.80;3.95;;;;;;;13.76;100.00;96863.09;6176697;23;20023;-70
2022/10/18 00:06:56;;;;;;;4.85;4.00;;;;;;;13.70;100.00;96864.47;6176732;23;20054;-70
2022/10/18 00:09:22;;;;;;;8.93;4.78;;;;;;;13.63;100.00;96867.78;6176929;23;20054;-70
2022/10/18 00:11:47;;;;;;;11.85;4.38;;;;;;;13.63;100.00;96863.34;6176953;23;20036;-70
2022/10/18 00:14:12;;;;;;;5.25;4.68;;;;;;;13.63;100.00;96868.63;6176904;23;20001;-59
2022/10/18 00:16:38;;;;;;;6.00;4.20;;;;;;;13.60;100.00;96874.19;6177263;23;20001;-70
2022/10/18 00:19:03;;;;;;;5.18;4.57;;;;;;;13.55;100.00;96879.88;6176641;23;20017;-70
2022/10/18 00:21:29;;;;;;;5.40;4.75;;;;;;;13.49;100.00;96874.25;6176745;23;20033;-70
2022/10/18 00:23:54;;;;;;;12.55;4.82;;;;;;;13.45;100.00;96871.88;6176491;23;20008;-70
2022/10/18 00:26:25;;;;;;;10.98;4.85;;;;;;;13.42;100.00;96880.03;6177148;23;20004;-69
2022/10/18 00:28:54;;;;;;;9.75;4.68;;;;;;;13.35;100.00;96870.94;6176813;23;20100;-70
2022/10/18 00:31:28;;;;;;;7.50;4.80;;;;;;;13.31;100.00;96869.53;6177548;22;20027;-69
2022/10/18 00:33:59;;;;;;;9.02;4.43;;;;;;;13.30;100.00;96870.50;6176667;23;20025;-64
2022/10/18 00:36:26;;;;;;;8.80;4.15;;;;;;;13.28;100.00;96875.06;6177261;23;20016;-66
2022/10/18 00:38:52;;;;;;;6.47;4.30;;;;;;;13.23;100.00;96869.34;6176586;23;20016;-65
2022/10/18 00:41:29;;;;;;;8.35;5.03;;;;;;;13.22;100.00;96871.13;6177376;23;20001;-65
2022/10/18 00:44:03;;;;;;;6.53;4.30;;;;;;;13.25;100.00;96859.47;6176692;23;20126;-66
2022/10/18 00:46:36;;;;;;;8.43;4.30;;;;;;;13.21;100.00;96874.75;6176978;23;19997;-66
2022/10/18 00:49:11;;;;;;;6.35;4.93;;;;;;;13.14;100.00;96874.41;6177024;23;19997;-66
2022/10/18 00:51:47;;;;;;;7.63;4.20;;;;;;;13.13;100.00;96867.47;6177546;23;20065;-64
2022/10/18 00:54:14;;;;;;;4.88;4.38;;;;;;;13.15;100.00;96865.56;6151189;22;20002;-58
2022/10/18 00:56:40;;;;;;;8.75;4.18;;;;;;;13.17;100.00;96870.69;6177772;23;20028;-70
2022/10/18 00:59:06;;;;;;;5.95;4.68;;;;;;;13.14;100.00;96866.50;6177417;23;20004;-69
2022/10/18 01:01:32;;;;;;;4.57;4.18;;;;;;;13.10;100.00;96875.66;6177995;23;20001;-70
2022/10/18 01:03:57;;;;;;;6.43;4.50;;;;;;;13.01;100.00;96871.97;6177436;23;20005;-69
2022/10/18 01:06:24;;;;;;;4.65;4.15;;;;;;;12.98;100.00;96874.88;6178030;23;20350;-69
2022/10/18 01:08:59;;;;;;;5.65;4.53;;;;;;;12.96;100.00;96873.34;6178047;23;20012;-70
2022/10/18 01:11:54;;;;;;;6.07;4.67;;;;;;;12.94;100.00;96878.75;6177792;23;20032;-65
2022/10/18 01:14:31;;;;;;;5.90;4.78;;;;;;;12.90;100.00;96877.31;6177792;23;20001;-63
2022/10/18 01:17:16;;;;;;;5.00;4.57;;;;;;;12.86;100.00;96884.66;6177770;23;20530;-67
2022/10/18 01:20:14;;;;;;;6.40;5.00;;;;;;;12.77;100.00;96877.50;6177397;23;20024;-66
2022/10/18 01:22:48;;;;;;;7.18;5.22;;;;;;;12.69;100.00;96874.63;6178766;23;20091;-67
2022/10/18 01:25:30;;;;;;;8.85;5.60;;;;;;;12.68;100.00;96873.81;6178405;23;20009;-67
2022/10/18 01:28:08;;;;;;;11.38;5.50;;;;;;;12.61;100.00;96870.00;6177898;23;20443;-67
2022/10/18 01:30:46;;;;;;;10.05;5.40;;;;;;;12.61;100.00;96864.72;6177707;23;20000;-70
2022/10/18 01:33:41;;;;;;;8.10;4.93;;;;;;;12.61;100.00;96870.84;6178155;23;19997;-65
2022/10/18 01:36:18;;;;;;;8.90;5.32;;;;;;;12.62;100.00;96874.31;6177564;23;20021;-69
2022/10/18 01:38:45;;;;;;;14.50;5.07;;;;;;;12.58;100.00;96873.72;6177044;23;20058;-69
2022/10/18 01:41:12;;;;;;;11.18;4.75;;;;;;;12.56;100.00;96869.53;6176996;23;20013;-69
2022/10/18 01:43:39;;;;;;;5.97;4.75;;;;;;;12.55;100.00;96870.50;6177499;23;20320;-69
2022/10/18 01:46:07;;;;;;;11.00;5.25;;;;;;;12.50;100.00;96865.59;6177426;23;20001;-69
2022/10/18 01:48:36;;;;;;;6.47;4.93;;;;;;;12.48;100.00;96864.03;6177292;23;20076;-70
2022/10/18 01:51:02;;;;;;;7.38;4.20;;;;;;;12.42;100.00;96868.00;6177577;23;20072;-57
2022/10/18 01:53:33;;;;;;;8.82;4.65;;;;;;;12.38;100.00;96863.94;6177527;23;20085;-64
2022/10/18 01:56:20;;;;;;;5.47;4.43;;;;;;;12.32;100.00;96858.22;6178022;23;20008;-65
2022/10/18 01:59:20;;;;;;;5.60;4.80;;;;;;;12.28;100.00;96853.28;6177337;23;20007;-64
2022/10/18 02:01:45;;;;;;;8.55;6.80;;;;;;;12.28;100.00;96862.06;6115736;23;20012;-64
2022/10/18 02:04:22;;;;;;;8.73;5.47;;;;;;;12.23;100.00;96858.94;6177284;23;19997;-65
2022/10/18 02:06:54;;;;;;;7.43;4.50;;;;;;;12.23;100.00;96856.28;6177079;23;20032;-64
2022/10/18 02:09:29;;;;;;;6.65;4.50;;;;;;;12.22;100.00;96851.16;6177408;23;20050;-64
2022/10/18 02:11:56;;;;;;;7.10;5.00;;;;;;;12.20;100.00;96853.09;6177264;23;20004;-68
2022/10/18 02:14:24;;;;;;;6.20;4.95;;;;;;;12.13;100.00;96853.56;6177101;23;20005;-65
2022/10/18 02:16:54;;;;;;;8.45;5.13;;;;;;;12.16;100.00;96858.59;6177618;23;20412;-65
2022/10/18 02:19:38;;;;;;;8.68;5.13;;;;;;;12.09;100.00;96852.13;6177126;23;20066;-65
2022/10/18 02:22:06;;;;;;;6.28;5.03;;;;;;;12.02;100.00;96867.59;6177218;23;20016;-66
2022/10/18 02:24:44;;;;;;;7.68;5.15;;;;;;;12.02;100.00;96861.50;6177608;23;19997;-66
2022/10/18 02:27:10;;;;;;;6.32;5.25;;;;;;;12.03;100.00;96863.19;6177137;22;20009;-66
2022/10/18 02:29:36;;;;;;;6.20;4.80;;;;;;;12.03;100.00;96861.38;6177936;22;20448;-58
2022/10/18 02:32:19;;;;;;;5.53;4.90;;;;;;;12.02;100.00;96857.06;6175946;23;20001;-64
2022/10/18 02:35:05;;;;;;;5.55;4.60;;;;;;;12.02;100.00;96856.22;6177539;22;19997;-64
2022/10/18 02:37:35;;;;;;;8.18;4.70;;;;;;;12.00;100.00;96852.84;6177884;23;19997;-64
2022/10/18 02:40:03;;;;;;;8.07;4.82;;;;;;;11.97;100.00;96853.91;6177488;23;20035;-64
2022/10/18 02:42:38;;;;;;;5.68;4.45;;;;;;;11.98;100.00;96849.50;6177729;23;20023;-63
2022/10/18 02:45:05;;;;;;;6.30;4.70;;;;;;;11.97;100.00;96842.53;6177304;23;20016;-64
2022/10/18 02:47:31;;;;;;;6.07;4.93;;;;;;;11.90;100.00;96844.81;6177321;23;20085;-68
2022/10/18 02:49:56;;;;;;;6.95;5.15;;;;;;;11.83;100.00;96846.28;6177270;23;20033;-65
2022/10/18 02:52:22;;;;;;;5.10;4.60;;;;;;;11.83;100.00;96847.09;6177483;22;20012;-58
2022/10/18 02:54:47;;;;;;;6.43;5.32;;;;;;;11.86;100.00;96843.38;6150721;22;20415;-57
2022/10/18 02:57:13;;;;;;;10.80;5.30;;;;;;;11.83;100.00;96851.56;6177634;23;20012;-57
2022/10/18 02:59:38;;;;;;;7.57;5.18;;;;;;;11.79;100.00;96850.09;6177188;22;20115;-58
2022/10/18 03:02:03;;;;;;;7.35;5.00;;;;;;;11.79;100.00;96853.59;6177246;23;20174;-58
2022/10/18 03:04:29;;;;;;;5.40;4.90;;;;;;;11.75;100.00;96850.34;6176900;23;19997;-58
2022/10/18 03:06:54;;;;;;;6.95;5.35;;;;;;;11.71;100.00;96859.47;6177175;23;20009;-63
2022/10/18 03:09:19;;;;;;;6.65;4.57;;;;;;;11.72;100.00;96855.84;6177084;23;20070;-69
2022/10/18 03:11:45;;;;;;;10.85;5.70;;;;;;;11.69;100.00;96856.09;6177106;23;20489;-69
2022/10/18 03:14:10;;;;;;;6.65;5.10;;;;;;;11.64;100.00;96853.00;6176536;23;20067;-69
2022/10/18 03:16:36;;;;;;;9.43;5.35;;;;;;;11.59;100.00;96855.13;6177180;23;20046;-69
2022/10/18 03:19:01;;;;;;;10.30;5.15;;;;;;;11.61;100.00;96863.78;6177147;23;20021;-69
2022/10/18 03:21:26;;;;;;;7.25;5.07;;;;;;;11.62;100.00;96849.63;6177214;23;20001;-69
2022/10/18 03:23:52;;;;;;;13.32;5.38;;;;;;;11.64;100.00;96847.72;6176990;23;20020;-69
2022/10/18 03:26:17;;;;;;;6.68;5.35;;;;;;;11.61;100.00;96854.06;6177295;23;20431;-58
2022/10/18 03:28:43;;;;;;;9.93;4.95;;;;;;;11.56;100.00;96856.22;6177004;23;20453;-66
2022/10/18 03:31:08;;;;;;;8.60;5.82;;;;;;;11.52;100.00;96857.44;6176838;23;20008;-67
2022/10/18 03:33:33;;;;;;;5.93;5.20;;;;;;;11.51;100.00;96858.38;6177220;23;20072;-67
2022/10/18 03:35:59;;;;;;;14.18;5.40;;;;;;;11.49;100.00;96862.91;6177213;23;20352;-67
2022/10/18 03:38:24;;;;;;;6.03;5.05;;;;;;;11.44;100.00;96862.44;6176942;23;20001;-67
2022/10/18 03:40:50;;;;;;;9.15;5.68;;;;;;;11.41;100.00;96862.69;6176599;23;20031;-66
2022/10/18 03:43:15;;;;;;;5.53;4.90;;;;;;;11.41;100.00;96873.22;6176947;23;20396;-67
2022/10/18 03:45:42;;;;;;;8.23;5.50;;;;;;;11.40;100.00;96867.13;6176791;23;20080;-64
2022/10/18 03:48:07;;;;;;;11.98;5.35;;;;;;;11.38;100.00;96870.84;6177571;23;20414;-64
2022/10/18 03:50:32;;;;;;;7.22;5.53;;;;;;;11.38;100.00;96873.47;6176979;23;20001;-64
2022/10/18 03:52:58;;;;;;;5.53;4.72;;;;;;;11.31;100.00;96883.63;6176817;23;20374;-64
2022/10/18 03:55:23;;;;;;;6.15;5.55;;;;;;;11.32;100.00;96880.03;6176784;23;20076;-63
2022/10/18 03:57:49;;;;;;;9.90;4.55;;;;;;;11.34;100.00;96887.84;6176928;23;20389;-64
2022/10/18 04:00:14;;;;;;;6.13;5.55;;;;;;;11.27;100.00;96892.75;6176934;23;20084;-63
2022/10/18 04:02:40;;;;;;;7.65;5.38;;;;;;;11.24;100.00;96887.72;6177731;23;20005;-63
2022/10/18 04:05:06;;;;;;;5.65;5.07;;;;;;;11.25;100.00;96884.94;6177201;23;20487;-58
2022/10/18 04:07:32;;;;;;;8.85;5.43;;;;;;;11.28;100.00;96892.63;6176758;23;20008;-70
2022/10/18 04:09:57;;;;;;;8.48;4.82;;;;;;;11.27;100.00;96890.97;6177487;23;20148;-63
2022/10/18 04:12:23;;;;;;;13.30;5.70;;;;;;;11.26;100.00;96894.53;6177156;23;20005;-64
2022/10/18 04:14:48;;;;;;;9.48;5.53;;;;;;;11.31;100.00;96899.47;6177171;23;20077;-64
2022/10/18 04:17:13;;;;;;;6.07;5.53;;;;;;;11.29;100.00;96896.09;6177054;23;20589;-64
2022/10/18 04:19:39;;;;;;;11.70;5.40;;;;;;;11.22;100.00;96889.63;6177504;23;20009;-64
2022/10/18 04:22:05;;;;;;;8.68;5.32;;;;;;;11.23;100.00;96893.94;6177290;23;20004;-64
2022/10/18 04:24:30;;;;;;;6.90;5.40;;;;;;;11.21;100.00;96893.22;6176691;23;20399;-68
2022/10/18 04:26:55;;;;;;;7.13;5.35;;;;;;;11.20;100.00;96899.44;6176680;23;20058;-66
2022/10/18 04:29:21;;;;;;;6.75;6.05;;;;;;;11.17;100.00;96898.72;6177233;23;20005;-65
2022/10/18 04:31:46;;;;;;;6.07;5.40;;;;;;;11.15;100.00;96899.78;6176861;23;19997;-64
2022/10/18 04:34:12;;;;;;;5.80;5.35;;;;;;;11.15;100.00;96900.59;6177516;22;20054;-64
2022/10/18 04:36:37;;;;;;;6.78;5.45;;;;;;;11.12;100.00;96900.84;6176869;23;19997;-64
2022/10/18 04:39:02;;;;;;;8.75;5.53;;;;;;;11.10;100.00;96896.66;6177251;23;20009;-64
2022/10/18 04:41:28;;;;;;;8.73;5.60;;;;;;;11.08;100.00;96904.66;6176925;23;20011;-64
2022/10/18 04:43:53;;;;;;;15.02;5.80;;;;;;;11.09;100.00;96906.34;6177146;23;20032;-65
2022/10/18 04:46:19;;;;;;;10.30;5.65;;;;;;;11.09;100.00;96905.53;6176767;23;20125;-68
2022/10/18 04:48:44;;;;;;;6.10;5.55;;;;;;;11.06;100.00;96901.31;6177027;23;20001;-60
2022/10/18 04:51:09;;;;;;;8.93;5.13;;;;;;;11.05;100.00;96902.28;6177131;23;20054;-60
2022/10/18 04:53:35;;;;;;;8.18;5.43;;;;;;;11.01;100.00;96899.00;6176981;23;20144;-60
2022/10/18 04:56:00;;;;;;;8.52;5.47;;;;;;;11.03;100.00;96898.91;6176737;23;20042;-60
2022/10/18 04:58:26;;;;;;;7.57;5.55;;;;;;;11.02;100.00;96907.78;6177035;23;20043;-60
2022/10/18 05:00:51;;;;;;;5.88;5.38;;;;;;;10.98;100.00;96906.34;6176916;23;20032;-59
2022/10/18 05:03:17;;;;;;;9.68;5.50;;;;;;;10.95;100.00;96906.56;6176694;23;20005;-65
2022/10/18 05:05:44;;;;;;;6.45;5.60;;;;;;;10.92;100.00;96909.41;6177344;23;20402;-68
2022/10/18 05:08:10;;;;;;;7.25;5.82;;;;;;;10.89;100.00;96919.22;6176872;23;20021;-69
2022/10/18 05:10:36;;;;;;;7.57;5.60;;;;;;;10.89;100.00;96921.84;6176360;23;20127;-69
2022/10/18 05:13:01;;;;;;;10.25;5.22;;;;;;;10.89;100.00;96921.03;6176936;23;20050;-69
2022/10/18 05:15:27;;;;;;;5.65;5.03;;;;;;;10.82;100.00;96918.00;6176398;23;20008;-69
2022/10/18 05:17:52;;;;;;;7.50;5.45;;;;;;;10.84;100.00;96924.00;6176969;23;20020;-69
2022/10/18 05:20:17;;;;;;;8.43;5.57;;;;;;;10.86;100.00;96930.00;6176273;23;20017;-69
2022/10/18 05:22:43;;;;;;;8.73;5.85;;;;;;;10.85;100.00;96925.66;6150813;23;20078;-67
2022/10/18 05:25:08;;;;;;;5.90;5.28;;;;;;;10.86;100.00;96922.09;6176219;23;20067;-64
2022/10/18 05:27:34;;;;;;;8.60;5.70;;;;;;;10.83;100.00;96917.03;6176522;23;20001;-68
2022/10/18 05:29:59;;;;;;;6.60;6.10;;;;;;;10.76;100.00;96913.19;6176586;23;20005;-68
2022/10/18 05:32:25;;;;;;;7.95;6.00;;;;;;;10.74;100.00;96915.09;6174801;23;20053;-68
2022/10/18 05:34:50;;;;;;;6.07;5.57;;;;;;;10.73;100.00;96919.50;6175841;23;20008;-69
2022/10/18 05:37:15;;;;;;;6.72;6.05;;;;;;;10.71;100.00;96917.94;6177913;23;19997;-68
2022/10/18 05:39:41;;;;;;;5.95;5.40;;;;;;;10.67;100.00;96901.53;6177668;22;20001;-67
2022/10/18 05:42:07;;;;;;;8.10;5.95;;;;;;;10.67;100.00;96906.81;6176732;23;20076;-66
2022/10/18 05:44:33;;;;;;;11.30;5.72;;;;;;;10.66;100.00;96907.75;6176282;23;20713;-66
2022/10/18 05:46:58;;;;;;;5.60;5.07;;;;;;;10.62;100.00;96903.69;6176758;23;20027;-66
2022/10/18 05:49:24;;;;;;;12.50;5.28;;;;;;;10.63;100.00;96909.78;6173410;23;20347;-66
2022/10/18 05:51:49;;;;;;;8.90;5.28;;;;;;;10.68;100.00;96907.63;6175905;23;20133;-66
2022/10/18 05:54:14;;;;;;;8.60;5.70;;;;;;;10.68;100.00;96899.72;6177865;23;20336;-64
2022/10/18 05:56:40;;;;;;;14.38;5.85;;;;;;;10.66;100.00;96899.00;6177732;23;20001;-65
2022/10/18 05:59:10;;;;;;;7.60;5.50;;;;;;;10.65;100.00;96894.69;6176220;23;20568;-64
2022/10/18 06:01:40;;;;;;;5.82;5.32;;;;;;;10.63;100.00;96893.97;6177794;23;20442;-62
2022/10/18 06:04:06;;;;;;;9.68;5.88;;;;;;;10.55;100.00;96894.53;6177923;23;20024;-63
2022/10/18 06:06:32;;;;;;;8.10;5.40;;;;;;;10.55;100.00;96894.53;6176676;23;20013;-63
2022/10/18 06:08:58;;;;;;;10.95;5.47;;;;;;;10.55;100.00;96892.75;6176415;23;20013;-62
2022/10/18 06:11:24;;;;;;;6.40;5.03;;;;;;;10.52;100.00;96894.75;6176131;23;20055;-63
2022/10/18 06:13:51;;;;;;;8.65;5.47;;;;;;;10.54;100.00;96896.34;6176607;23;20008;-62
2022/10/18 06:16:18;;;;;;;6.72;4.85;;;;;;;10.56;100.00;96902.31;6176131;23;20032;-62
2022/10/18 06:18:49;;;;;;;13.55;6.00;;;;;;;10.59;100.00;96899.47;6177164;23;20429;-63
2022/10/18 06:21:15;;;;;;;10.05;5.60;;;;;;;10.60;100.00;96901.13;6177598;23;20039;-63
2022/10/18 06:23:40;;;;;;;12.70;5.63;;;;;;;10.59;100.00;96902.09;6176810;23;20402;-66
2022/10/18 06:26:07;;;;;;;6.78;5.50;;;;;;;10.57;100.00;96896.09;6176195;23;20048;-66
2022/10/18 06:28:34;;;;;;;9.13;5.90;;;;;;;10.63;100.00;96904.50;6177685;23;19997;-66
2022/10/18 06:31:00;;;;;;;10.50;6.03;;;;;;;10.68;100.00;96905.84;6177858;23;20001;-66
2022/10/18 06:33:25;;;;;;;12.10;5.90;;;;;;;10.71;100.00;96903.00;6175814;23;20023;-66
2022/10/18 06:36:00;;;;;;;15.57;6.47;;;;;;;10.73;100.00;96910.78;6178043;23;19997;-66
2022/10/18 06:38:26;;;;;;;12.18;6.45;;;;;;;10.72;100.00;96903.81;6175376;23;20005;-63
2022/10/18 06:40:52;;;;;;;10.43;5.70;;;;;;;10.72;100.00;96912.56;6176639;23;20024;-68
2022/10/18 06:43:17;;;;;;;10.32;5.53;;;;;;;10.74;100.00;96908.03;6176042;23;20435;-66
2022/10/18 06:45:42;;;;;;;12.13;6.38;;;;;;;10.67;100.00;96912.06;6175969;23;20365;-66
2022/10/18 06:48:08;;;;;;;14.73;5.18;;;;;;;10.70;100.00;96911.84;6175726;22;20400;-67
2022/10/18 06:50:33;;;;;;;12.85;5.63;;;;;;;10.71;100.00;96921.41;6175219;23;20005;-67
2022/10/18 06:52:58;;;;;;;7.50;5.40;;;;;;;10.77;100.00;96928.03;6175614;23;20366;-67
2022/10/18 06:55:24;;;;;;;11.15;6.22;;;;;;;10.81;100.00;96928.63;6175664;23;20004;-67
2022/10/18 06:57:49;;;;;;;7.90;5.97;;;;;;;10.86;100.00;96923.88;6176097;23;20027;-63
2022/10/18 07:00:15;;;;;;;13.05;5.70;;;;;;;10.86;100.00;96922.09;6176159;23;20019;-67
2022/10/18 07:02:40;;;;;;;10.85;5.70;;;;;;;10.85;100.00;96923.03;6176264;22;19997;-64
2022/10/18 07:05:06;;;;;;;9.70;5.97;;;;;;;10.91;100.00;96926.16;6176138;23;20062;-64
2022/10/18 07:07:32;;;;;;;10.15;5.93;;;;;;;10.94;100.00;96928.56;6175944;23;20054;-65
2022/10/18 07:09:57;;;;;;;16.15;5.72;;;;;;;10.98;100.00;96927.41;6176519;23;20009;-64
2022/10/18 07:12:23;;;;;;;10.20;6.05;;;;;;;10.99;100.00;96931.72;6177611;23;20012;-64
2022/10/18 07:14:48;;;;;;;14.23;6.03;;;;;;;11.00;100.00;96930.78;6175525;23;20001;-65
2022/10/18 07:17:13;;;;;;;8.10;6.28;;;;;;;11.04;100.00;96934.84;6176357;23;20005;-63
2022/10/18 07:19:39;;;;;;;12.23;5.95;;;;;;;11.04;100.00;96933.03;6176843;23;20082;-64
2022/10/18 07:22:04;;;;;;;6.65;5.80;;;;;;;11.11;100.00;96938.69;6176739;23;20024;-60
2022/10/18 07:24:29;;;;;;;10.32;5.68;;;;;;;11.16;100.00;96936.59;6176258;23;20496;-60
2022/10/18 07:26:55;;;;;;;9.65;6.20;;;;;;;11.16;100.00;96941.84;6177232;22;20155;-60
2022/10/18 07:29:20;;;;;;;11.35;7.47;;;;;;;11.15;100.00;96936.69;6176928;23;20004;-60
2022/10/18 07:31:46;;;;;;;12.75;5.35;;;;;;;11.27;100.00;96942.81;6177030;23;20092;-60
2022/10/18 07:34:12;;;;;;;14.52;6.18;;;;;;;11.29;100.00;96938.28;6174889;23;20061;-60
2022/10/18 07:36:38;;;;;;;16.08;6.28;;;;;;;11.54;100.00;96936.41;6175421;23;20076;-64
2022/10/18 07:39:07;;;;;;;11.48;6.60;;;;;;;11.57;100.00;96946.72;6176939;23;20482;-68
2022/10/18 07:41:33;;;;;;;14.43;7.00;;;;;;;11.47;100.00;96946.59;6176673;23;20019;-56
2022/10/18 07:43:59;;;;;;;9.40;6.65;;;;;;;11.45;100.00;96944.06;6176596;23;20015;-58
2022/10/18 07:46:24;;;;;;;14.50;6.53;;;;;;;11.45;100.00;96949.34;6176788;23;20028;-58
2022/10/18 07:48:50;;;;;;;9.07;6.05;;;;;;;11.45;100.00;96948.50;6177036;23;20050;-57
2022/10/18 07:51:17;;;;;;;14.00;6.55;;;;;;;11.44;100.00;96958.22;6176913;23;20015;-56
2022/10/18 07:53:43;;;;;;;15.75;6.55;;;;;;;11.48;100.00;96955.34;6176365;23;20432;-57
2022/10/18 07:56:15;;;;;;;14.13;7.32;;;;;;;11.60;100.00;96962.31;6176383;23;20005;-67
2022/10/18 07:58:44;;;;;;;10.00;6.53;;;;;;;11.77;100.00;96952.25;6176150;23;20080;-66
2022/10/18 08:01:11;;;;;;;10.18;6.63;;;;;;;11.90;100.00;96953.00;6176873;23;20001;-63
2022/10/18 08:03:37;;;;;;;15.65;6.60;;;;;;;12.01;100.00;96947.75;6176248;23;20096;-63
2022/10/18 08:06:03;;;;;;;11.10;6.82;;;;;;;12.16;100.00;96958.94;6176297;23;20005;-64
2022/10/18 08:08:29;;;;;;;15.93;9.70;;;;;;;12.28;100.00;96954.47;6176945;23;20355;-63
2022/10/18 08:11:00;;;;;;;18.15;8.60;;;;;;;12.36;100.00;96953.84;6177365;22;20012;-64
2022/10/18 08:13:25;;;;;;;16.55;7.72;;;;;;;12.49;100.00;96953.72;6176581;23;19993;-63
2022/10/18 08:15:59;;;;;;;13.43;5.45;;;;;;;12.64;100.00;96949.00;6176578;23;20008;-64
2022/10/18 08:18:24;;;;;;;12.32;6.32;;;;;;;12.77;100.00;96945.34;6174705;23;20001;-59
2022/10/18 08:20:49;;;;;;;10.45;5.82;;;;;;;12.89;100.00;96937.25;6175420;23;20088;-67
2022/10/18 08:23:15;;;;;;;12.73;7.15;;;;;;;13.03;100.00;96935.28;6174709;23;20004;-68
2022/10/18 08:25:40;;;;;;;10.35;5.82;;;;;;;13.23;100.00;96930.16;6175133;23;20005;-68
2022/10/18 08:28:06;;;;;;;12.75;6.55;;;;;;;13.35;100.00;96925.66;6175281;23;20431;-68
2022/10/18 08:30:32;;;;;;;22.20;6.00;;;;;;;13.46;100.00;96926.44;6175035;23;20054;-68
2022/10/18 08:32:58;;;;;;;25.27;6.55;;;;;;;13.53;100.00;96923.28;6175458;23;20669;-68
2022/10/18 08:35:23;;;;;;;15.15;6.43;;;;;;;13.57;100.00;96922.03;6174974;23;20001;-63
2022/10/18 08:37:49;;;;;;;13.45;6.32;;;;;;;13.61;100.00;96919.00;6175406;23;20059;-63
2022/10/18 08:40:14;;;;;;;10.50;6.00;;;;;;;13.68;100.00;96913.19;6174770;23;20009;-68
2022/10/18 08:42:59;;;;;;;14.27;6.40;;;;;;;13.74;100.00;96916.16;6175153;23;20013;-68
2022/10/18 08:45:26;;;;;;;8.53;5.67;;;;;;;13.92;100.00;96912.91;6174329;22;20012;-68
2022/10/18 08:47:56;;;;;;;9.00;5.60;;;;;;;14.12;100.00;96908.50;6175039;22;20450;-68
2022/10/18 08:50:40;;;;;;;10.57;5.78;;;;;;;14.24;100.00;96911.88;6176171;23;20024;-68
2022/10/18 08:53:13;;;;;;;12.35;5.65;;;;;;;14.31;100.00;96910.38;6176228;23;20076;-69
2022/10/18 08:55:47;;;;;;;9.63;5.65;;;;;;;14.44;100.00;96910.13;6175666;22;20008;-63
2022/10/18 08:58:19;;;;;;;11.93;5.80;;;;;;;14.57;100.00;96903.72;6174976;23;20013;-59
2022/10/18 09:01:00;;;;;;;10.15;5.47;;;;;;;14.65;100.00;96900.38;6175028;23;20048;-59
2022/10/18 09:03:47;;;;;;;6.70;4.80;;;;;;;14.67;100.00;96901.09;6175803;23;19997;-60
2022/10/18 09:06:36;;;;;;;11.15;6.32;;;;;;;14.74;100.00;96905.72;6175527;23;20012;-60
2022/10/18 09:09:10;;;;;;;7.25;5.28;;;;;;;14.83;100.00;96904.06;6176737;23;20008;-60
2022/10/18 09:11:48;;;;;;;8.90;5.07;;;;;;;14.88;100.00;96907.13;6176666;23;20354;-60
2022/10/18 09:14:26;;;;;;;6.53;5.65;;;;;;;14.95;100.00;96902.13;6176399;23;20116;-67
2022/10/18 09:17:09;;;;;;;8.68;4.43;;;;;;;15.07;100.00;96896.69;6177311;23;20304;-63
2022/10/18 09:19:40;;;;;;;11.48;4.72;;;;;;;15.12;100.00;96895.25;6175983;23;20013;-64
2022/10/18 09:22:15;;;;;;;12.40;5.32;;;;;;;15.17;100.00;96887.75;6177399;23;20001;-63
2022/10/18 09:25:01;;;;;;;6.82;4.85;;;;;;;15.19;100.00;96892.88;6177401;23;19997;-63
2022/10/18 09:27:40;;;;;;;8.43;5.00;;;;;;;15.22;100.00;96886.47;6177388;23;20458;-63
2022/10/18 09:30:25;;;;;;;9.25;4.30;;;;;;;15.30;100.00;96883.94;6177354;23;20005;-63
2022/10/18 09:32:55;;;;;;;6.65;4.57;;;;;;;15.48;100.00;96884.06;6177593;23;20060;-58
2022/10/18 09:35:24;;;;;;;8.85;4.50;;;;;;;15.65;100.00;96887.78;6177021;23;20001;-67
2022/10/18 09:37:54;;;;;;;11.25;5.40;;;;;;;15.73;100.00;96874.59;6177279;23;20020;-64
2022/10/18 09:40:28;;;;;;;5.57;5.07;;;;;;;15.87;100.00;96881.25;6176903;23;20451;-64
2022/10/18 09:43:01;;;;;;;8.95;5.32;;;;;;;16.01;100.00;96873.81;6177416;23;20008;-63
2022/10/18 09:45:36;;;;;;;9.25;5.55;;;;;;;16.17;99.63;96883.81;6176954;23;20017;-63
2022/10/18 09:48:11;;;;;;;5.88;5.15;;;;;;;16.41;96.08;96871.78;6177800;22;20081;-63
2022/10/18 09:50:49;;;;;;;9.60;4.70;;;;;;;16.40;95.65;96875.44;6177891;23;20007;-64
2022/10/18 09:53:24;;;;;;;6.65;5.22;;;;;;;16.38;94.88;96872.94;6177109;23;20020;-66
2022/10/18 09:56:05;;;;;;;8.35;4.65;;;;;;;16.50;91.44;96865.59;6177320;23;20657;-63
2022/10/18 09:58:40;;;;;;;7.97;5.20;;;;;;;16.47;91.55;96866.72;6177315;23;20005;-63
2022/10/18 10:01:07;;;;;;;8.73;4.80;;;;;;;16.51;92.40;96869.06;6177644;23;20005;-63
2022/10/18 10:03:32;;;;;;;11.73;4.90;;;;;;;16.51;91.35;96866.41;6177071;23;20011;-63
2022/10/18 10:06:24;;;;;;;5.70;4.40;;;;;;;16.68;90.87;96872.72;6176786;23;20389;-63
2022/10/18 10:08:57;;;;;;;5.38;4.38;;;;;;;16.80;85.80;96871.50;6177068;23;20012;-63
2022/10/18 10:11:39;;;;;;;6.13;4.70;;;;;;;16.90;86.64;96874.09;6177285;23;20004;-65
2022/10/18 10:14:08;;;;;;;7.47;4.70;;;;;;;17.03;86.72;96879.03;6177278;23;20036;-66
2022/10/18 10:16:43;;;;;;;6.88;4.20;;;;;;;17.21;85.31;96879.00;6177222;23;20013;-62
2022/10/18 10:19:27;;;;;;;6.50;4.65;;;;;;;17.27;84.23;96874.91;6177547;23;20009;-63
2022/10/18 10:21:58;;;;;;;9.68;4.13;;;;;;;17.23;85.50;96876.22;6176811;23;20008;-63
2022/10/18 10:24:35;;;;;;;10.68;4.25;;;;;;;17.15;83.19;96875.16;6176800;23;20572;-63
2022/10/18 10:27:03;;;;;;;7.40;4.40;;;;;;;17.13;82.50;96877.16;6176796;23;20020;-63
2022/10/18 10:29:55;;;;;;;5.18;4.68;;;;;;;17.11;83.56;96870.31;6177394;23;19997;-63
2022/10/18 10:32:22;;;;;;;6.43;4.25;;;;;;;17.32;79.16;96865.47;6177525;23;20016;-65
2022/10/18 10:34:49;;;;;;;6.78;4.55;;;;;;;17.37;77.65;96865.00;6176793;23;20331;-63
2022/10/18 10:37:32;;;;;;;7.32;4.70;;;;;;;17.40;80.58;96858.53;6177193;23;20001;-63
2022/10/18 10:40:18;;;;;;;7.20;4.45;;;;;;;17.52;79.36;96859.94;6177172;23;20001;-63
2022/10/18 10:42:55;;;;;;;8.93;4.00;;;;;;;17.62;80.60;96849.19;6177101;23;20001;-64
2022/10/18 10:45:22;;;;;;;9.50;4.53;;;;;;;17.73;78.93;96837.44;6176641;23;20076;-64
2022/10/18 10:47:49;;;;;;;5.30;4.68;;;;;;;17.92;79.67;96836.34;6176845;23;20459;-64
2022/10/18 10:50:23;;;;;;;6.45;4.40;;;;;;;18.09;77.37;96831.09;6150968;22;20083;-57
2022/10/18 10:52:49;;;;;;;7.07;4.07;;;;;;;18.24;77.46;96831.31;6177253;23;20001;-66
2022/10/18 10:55:23;;;;;;;7.03;4.47;;;;;;;18.34;74.72;96826.66;6176541;23;20004;-66
2022/10/18 10:57:50;;;;;;;7.55;4.43;;;;;;;18.40;72.61;96819.84;6176980;23;19997;-66
2022/10/18 11:00:36;;;;;;;6.40;3.90;;;;;;;18.68;72.20;96817.72;6177104;23;20060;-66
2022/10/18 11:03:12;;;;;;;10.98;4.75;;;;;;;18.89;71.29;96817.22;6177294;23;20054;-66
2022/10/18 11:05:46;;;;;;;7.82;4.00;;;;;;;19.03;70.46;96814.91;6175416;23;20001;-67
2022/10/18 11:08:15;;;;;;;9.55;4.30;;;;;;;19.10;68.92;96807.91;6176219;23;20026;-69
2022/10/18 11:11:04;;;;;;;5.85;4.28;;;;;;;19.34;67.08;96803.53;6177185;23;20054;-63
2022/10/18 11:13:52;;;;;;;7.38;4.18;;;;;;;19.32;67.87;96802.88;6176499;23;20061;-55
2022/10/18 11:16:33;;;;;;;8.13;3.83;;;;;;;19.42;68.79;96800.84;6176105;22;20496;-59
2022/10/18 11:19:07;;;;;;;6.43;4.28;;;;;;;19.30;68.17;96794.19;6174570;23;20044;-58
2022/10/18 11:21:32;;;;;;;6.53;3.80;;;;;;;19.52;65.86;96799.81;6176371;23;19997;-58
2022/10/18 11:24:01;;;;;;;11.13;4.68;;;;;;;19.31;66.24;96787.84;6176514;23;20008;-58
2022/10/18 11:26:41;;;;;;;8.57;4.07;;;;;;;19.36;63.74;96782.00;6176339;23;20474;-57
2022/10/18 11:29:13;;;;;;;14.07;4.28;;;;;;;19.32;64.94;96773.50;6177128;23;20025;-65
2022/10/18 11:31:51;;;;;;;10.25;3.70;;;;;;;19.26;64.98;96774.19;6174143;23;20029;-58
2022/10/18 11:34:47;;;;;;;8.13;4.00;;;;;;;19.24;64.02;96766.38;6174619;23;20012;-55
2022/10/18 11:37:25;;;;;;;10.93;3.90;;;;;;;19.22;63.68;96765.69;6176198;23;20431;-58